sensor_id;sensor_type;location;lat;lon;timestamp;pressure;altitude;pressure_sealevel;temperature;humidity
83691;BME280;73671;43.220;0.064;2023-11-19T00:00:26;98722.69;;;9.66;62.91
83691;BME280;73671;43.220;0.064;2023-11-19T00:02:51;98708.63;;;9.44;63.09
83691;BME280;73671;43.220;0.064;2023-11-19T00:05:17;98714.75;;;9.21;64.85
83691;BME280;73671;43.220;0.064;2023-11-19T00:07:43;98709.56;;;9.30;64.62
83691;BME280;73671;43.220;0.064;2023-11-19T00:10:10;98718.00;;;9.39;63.48
83691;BME280;73671;43.220;0.064;2023-11-19T00:12:41;98717.38;;;9.28;64.32
83691;BME280;73671;43.220;0.064;2023-11-19T00:15:07;98717.72;;;9.30;63.99
83691;BME280;73671;43.220;0.064;2023-11-19T00:17:44;98712.75;;;9.25;64.18
83691;BME280;73671;43.220;0.064;2023-11-19T00:20:19;98704.88;;;9.34;63.49
83691;BME280;73671;43.220;0.064;2023-11-19T00:22:44;98710.22;;;9.41;62.94
83691;BME280;73671;43.220;0.064;2023-11-19T00:25:13;98710.56;;;9.43;63.16
83691;BME280;73671;43.220;0.064;2023-11-19T00:27:39;98706.25;;;9.46;62.88
83691;BME280;73671;43.220;0.064;2023-11-19T00:30:07;98716.28;;;9.52;62.88
83691;BME280;73671;43.220;0.064;2023-11-19T00:32:36;98699.97;;;9.52;62.57
83691;BME280;73671;43.220;0.064;2023-11-19T00:35:04;98701.50;;;9.53;62.80
83691;BME280;73671;43.220;0.064;2023-11-19T00:37:29;98698.78;;;9.53;62.16
83691;BME280;73671;43.220;0.064;2023-11-19T00:39:55;98694.53;;;9.52;62.50
83691;BME280;73671;43.220;0.064;2023-11-19T00:42:22;98689.84;;;9.53;61.95
83691;BME280;73671;43.220;0.064;2023-11-19T00:44:49;98687.19;;;9.49;62.93
83691;BME280;73671;43.220;0.064;2023-11-19T00:47:14;98686.84;;;9.47;62.95
83691;BME280;73671;43.220;0.064;2023-11-19T00:49:39;98676.88;;;9.37;63.32
83691;BME280;73671;43.220;0.064;2023-11-19T00:52:05;98686.31;;;9.29;64.07
83691;BME280;73671;43.220;0.064;2023-11-19T00:54:31;98687.34;;;9.39;63.13
83691;BME280;73671;43.220;0.064;2023-11-19T00:56:57;98685.38;;;9.39;63.48
83691;BME280;73671;43.220;0.064;2023-11-19T00:59:22;98683.78;;;9.42;63.13
83691;BME280;73671;43.220;0.064;2023-11-19T01:01:47;98679.16;;;9.42;62.70
83691;BME280;73671;43.220;0.064;2023-11-19T01:04:14;98677.31;;;9.32;63.89
83691;BME280;73671;43.220;0.064;2023-11-19T01:06:39;98681.59;;;9.02;64.68
83691;BME280;73671;43.220;0.064;2023-11-19T01:09:05;98682.69;;;9.08;64.57
83691;BME280;73671;43.220;0.064;2023-11-19T01:11:30;98682.59;;;9.16;63.75
83691;BME280;73671;43.220;0.064;2023-11-19T01:13:56;98677.88;;;9.20;63.66
83691;BME280;73671;43.220;0.064;2023-11-19T01:16:21;98674.34;;;9.23;63.48
83691;BME280;73671;43.220;0.064;2023-11-19T01:18:47;98669.38;;;9.18;63.80
83691;BME280;73671;43.220;0.064;2023-11-19T01:21:14;98671.69;;;9.19;63.67
83691;BME280;73671;43.220;0.064;2023-11-19T01:23:42;98674.78;;;9.21;63.08
83691;BME280;73671;43.220;0.064;2023-11-19T01:26:13;98668.56;;;9.21;63.29
83691;BME280;73671;43.220;0.064;2023-11-19T01:28:39;98675.16;;;9.20;63.70
83691;BME280;73671;43.220;0.064;2023-11-19T01:31:15;98673.22;;;9.20;63.72
83691;BME280;73671;43.220;0.064;2023-11-19T01:33:40;98673.28;;;9.17;63.94
83691;BME280;73671;43.220;0.064;2023-11-19T01:36:07;98681.06;;;8.84;66.04
83691;BME280;73671;43.220;0.064;2023-11-19T01:38:33;98685.28;;;8.85;65.39
83691;BME280;73671;43.220;0.064;2023-11-19T01:40:59;98693.72;;;8.94;65.25
83691;BME280;73671;43.220;0.064;2023-11-19T01:43:39;98689.41;;;9.00;64.37
83691;BME280;73671;43.220;0.064;2023-11-19T01:46:08;98685.50;;;9.01;64.04
83691;BME280;73671;43.220;0.064;2023-11-19T01:48:39;98690.88;;;9.05;64.34
83691;BME280;73671;43.220;0.064;2023-11-19T01:51:06;98692.84;;;9.04;64.39
83691;BME280;73671;43.220;0.064;2023-11-19T01:53:34;98692.84;;;9.04;64.05
83691;BME280;73671;43.220;0.064;2023-11-19T01:56:02;98692.09;;;9.00;63.98
83691;BME280;73671;43.220;0.064;2023-11-19T01:58:28;98693.34;;;8.92;64.80
83691;BME280;73671;43.220;0.064;2023-11-19T02:00:56;98690.69;;;8.88;64.69
83691;BME280;73671;43.220;0.064;2023-11-19T02:03:22;98686.03;;;8.89;64.83
83691;BME280;73671;43.220;0.064;2023-11-19T02:05:49;98689.13;;;8.91;63.79
83691;BME280;73671;43.220;0.064;2023-11-19T02:08:16;98683.69;;;8.91;64.20
83691;BME280;73671;43.220;0.064;2023-11-19T02:10:41;98679.06;;;8.88;63.93
83691;BME280;73671;43.220;0.064;2023-11-19T02:13:06;98683.94;;;8.69;65.52
83691;BME280;73671;43.220;0.064;2023-11-19T02:15:33;98675.47;;;8.64;65.13
83691;BME280;73671;43.220;0.064;2023-11-19T02:18:17;98680.84;;;8.67;65.24
83691;BME280;73671;43.220;0.064;2023-11-19T02:20:44;98677.69;;;8.73;64.10
83691;BME280;73671;43.220;0.064;2023-11-19T02:23:09;98682.31;;;8.76;64.14
83691;BME280;73671;43.220;0.064;2023-11-19T02:25:35;98682.31;;;8.76;64.51
83691;BME280;73671;43.220;0.064;2023-11-19T02:28:02;98678.41;;;8.77;64.73
83691;BME280;73671;43.220;0.064;2023-11-19T02:30:28;98688.50;;;8.76;64.06
83691;BME280;73671;43.220;0.064;2023-11-19T02:32:59;98685.00;;;8.38;66.87
83691;BME280;73671;43.220;0.064;2023-11-19T02:35:27;98676.47;;;8.43;65.91
83691;BME280;73671;43.220;0.064;2023-11-19T02:37:54;98674.06;;;8.48;65.43
83691;BME280;73671;43.220;0.064;2023-11-19T02:40:19;98673.22;;;8.55;65.31
83691;BME280;73671;43.220;0.064;2023-11-19T02:42:44;98673.97;;;8.59;64.82
83691;BME280;73671;43.220;0.064;2023-11-19T02:45:10;98666.22;;;8.58;65.12
83691;BME280;73671;43.220;0.064;2023-11-19T02:47:42;98666.97;;;8.62;64.94
83691;BME280;73671;43.220;0.064;2023-11-19T02:50:09;98675.50;;;8.60;65.35
83691;BME280;73671;43.220;0.064;2023-11-19T02:52:43;98667.06;;;8.51;65.96
83691;BME280;73671;43.220;0.064;2023-11-19T02:55:12;98672.59;;;8.37;65.81
83691;BME280;73671;43.220;0.064;2023-11-19T02:57:39;98665.31;;;8.30;66.02
83691;BME280;73671;43.220;0.064;2023-11-19T03:00:21;98663.38;;;8.31;65.82
83691;BME280;73671;43.220;0.064;2023-11-19T03:02:51;98661.81;;;8.33;65.29
83691;BME280;73671;43.220;0.064;2023-11-19T03:05:25;98662.19;;;8.32;65.24
83691;BME280;73671;43.220;0.064;2023-11-19T03:07:51;98663.72;;;8.33;65.72
83691;BME280;73671;43.220;0.064;2023-11-19T03:10:17;98660.22;;;8.36;65.43
83691;BME280;73671;43.220;0.064;2023-11-19T03:12:43;98660.28;;;8.28;66.04
83691;BME280;73671;43.220;0.064;2023-11-19T03:15:10;98652.75;;;8.05;68.31
83691;BME280;73671;43.220;0.064;2023-11-19T03:17:39;98653.06;;;7.70;69.00
83691;BME280;73671;43.220;0.064;2023-11-19T03:20:06;98653.94;;;7.56;70.10
83691;BME280;73671;43.220;0.064;2023-11-19T03:22:34;98648.41;;;7.70;69.11
83691;BME280;73671;43.220;0.064;2023-11-19T03:25:01;98651.81;;;7.78;68.73
83691;BME280;73671;43.220;0.064;2023-11-19T03:27:27;98648.50;;;7.56;70.92
83691;BME280;73671;43.220;0.064;2023-11-19T03:29:52;98653.25;;;7.41;71.37
83691;BME280;73671;43.220;0.064;2023-11-19T03:32:17;98644.38;;;7.40;71.16
83691;BME280;73671;43.220;0.064;2023-11-19T03:34:43;98632.34;;;7.41;71.21
83691;BME280;73671;43.220;0.064;2023-11-19T03:37:08;98638.00;;;7.65;69.90
83691;BME280;73671;43.220;0.064;2023-11-19T03:39:34;98639.78;;;7.82;69.06
83691;BME280;73671;43.220;0.064;2023-11-19T03:41:59;98639.69;;;7.93;68.24
83691;BME280;73671;43.220;0.064;2023-11-19T03:44:26;98636.16;;;8.00;67.84
83691;BME280;73671;43.220;0.064;2023-11-19T03:46:52;98631.16;;;7.95;68.60
83691;BME280;73671;43.220;0.064;2023-11-19T03:49:17;98630.44;;;7.87;68.51
83691;BME280;73671;43.220;0.064;2023-11-19T03:51:43;98632.69;;;7.96;68.08
83691;BME280;73671;43.220;0.064;2023-11-19T03:54:08;98638.06;;;8.03;68.36
83691;BME280;73671;43.220;0.064;2023-11-19T03:56:34;98624.50;;;8.03;68.22
83691;BME280;73671;43.220;0.064;2023-11-19T03:58:59;98626.47;;;7.99;68.13
83691;BME280;73671;43.220;0.064;2023-11-19T04:01:25;98623.38;;;7.97;68.49
83691;BME280;73671;43.220;0.064;2023-11-19T04:03:50;98629.81;;;7.72;69.83
83691;BME280;73671;43.220;0.064;2023-11-19T04:06:15;98627.16;;;7.65;69.71
83691;BME280;73671;43.220;0.064;2023-11-19T04:08:41;98621.41;;;7.56;70.59
83691;BME280;73671;43.220;0.064;2023-11-19T04:11:06;98622.16;;;7.60;70.08
83691;BME280;73671;43.220;0.064;2023-11-19T04:13:32;98624.31;;;7.79;69.24
83691;BME280;73671;43.220;0.064;2023-11-19T04:15:57;98619.97;;;7.89;69.20
83691;BME280;73671;43.220;0.064;2023-11-19T04:18:23;98625.72;;;7.95;68.84
83691;BME280;73671;43.220;0.064;2023-11-19T04:20:48;98614.16;;;7.91;68.42
83691;BME280;73671;43.220;0.064;2023-11-19T04:23:14;98621.84;;;7.96;69.30
83691;BME280;73671;43.220;0.064;2023-11-19T04:25:40;98623.38;;;7.97;68.89
83691;BME280;73671;43.220;0.064;2023-11-19T04:28:05;98618.72;;;8.01;68.03
83691;BME280;73671;43.220;0.064;2023-11-19T04:30:30;98625.66;;;8.02;68.91
83691;BME280;73671;43.220;0.064;2023-11-19T04:32:57;98614.88;;;7.95;68.83
83691;BME280;73671;43.220;0.064;2023-11-19T04:35:22;98628.81;;;7.97;69.19
83691;BME280;73671;43.220;0.064;2023-11-19T04:37:47;98620.19;;;7.64;71.69
83691;BME280;73671;43.220;0.064;2023-11-19T04:40:13;98626.06;;;7.52;71.79
83691;BME280;73671;43.220;0.064;2023-11-19T04:42:38;98618.75;;;7.49;72.77
83691;BME280;73671;43.220;0.064;2023-11-19T04:45:07;98612.19;;;7.42;73.43
83691;BME280;73671;43.220;0.064;2023-11-19T04:47:33;98618.25;;;7.61;71.57
83691;BME280;73671;43.220;0.064;2023-11-19T04:49:59;98626.66;;;7.77;70.54
83691;BME280;73671;43.220;0.064;2023-11-19T04:52:25;98634.28;;;7.90;70.01
83691;BME280;73671;43.220;0.064;2023-11-19T04:54:50;98622.22;;;7.98;69.50
83691;BME280;73671;43.220;0.064;2023-11-19T04:57:15;98628.03;;;8.00;69.59
83691;BME280;73671;43.220;0.064;2023-11-19T04:59:41;98620.75;;;7.90;70.17
83691;BME280;73671;43.220;0.064;2023-11-19T05:02:08;98634.34;;;7.82;70.52
83691;BME280;73671;43.220;0.064;2023-11-19T05:04:33;98636.81;;;7.66;71.11
83691;BME280;73671;43.220;0.064;2023-11-19T05:06:59;98627.41;;;7.81;70.38
83691;BME280;73671;43.220;0.064;2023-11-19T05:09:24;98626.25;;;7.79;70.65
83691;BME280;73671;43.220;0.064;2023-11-19T05:11:49;98625.63;;;7.64;71.61
83691;BME280;73671;43.220;0.064;2023-11-19T05:14:15;98626.06;;;7.52;71.58
83691;BME280;73671;43.220;0.064;2023-11-19T05:16:41;98623.78;;;7.47;72.10
83691;BME280;73671;43.220;0.064;2023-11-19T05:19:07;98616.75;;;7.56;71.80
83691;BME280;73671;43.220;0.064;2023-11-19T05:21:34;98620.47;;;7.73;70.28
83691;BME280;73671;43.220;0.064;2023-11-19T05:23:59;98623.88;;;7.84;69.83
83691;BME280;73671;43.220;0.064;2023-11-19T05:26:25;98621.53;;;7.90;69.85
83691;BME280;73671;43.220;0.064;2023-11-19T05:28:51;98628.84;;;7.93;69.04
83691;BME280;73671;43.220;0.064;2023-11-19T05:31:17;98621.84;;;7.96;69.50
83691;BME280;73671;43.220;0.064;2023-11-19T05:33:43;98625.69;;;7.98;68.90
83691;BME280;73671;43.220;0.064;2023-11-19T05:36:10;98621.84;;;7.96;68.58
83691;BME280;73671;43.220;0.064;2023-11-19T05:38:36;98625.91;;;7.73;69.86
83691;BME280;73671;43.220;0.064;2023-11-19T05:41:02;98605.94;;;7.53;71.42
83691;BME280;73671;43.220;0.064;2023-11-19T05:43:28;98611.38;;;7.49;71.79
83691;BME280;73671;43.220;0.064;2023-11-19T05:45:53;98615.13;;;7.66;71.10
83691;BME280;73671;43.220;0.064;2023-11-19T05:48:18;98619.72;;;7.76;70.61
83691;BME280;73671;43.220;0.064;2023-11-19T05:50:44;98623.13;;;7.84;69.63
83691;BME280;73671;43.220;0.064;2023-11-19T05:53:09;98623.06;;;7.88;69.25
83691;BME280;73671;43.220;0.064;2023-11-19T05:55:39;98616.88;;;7.91;68.80
83691;BME280;73671;43.220;0.064;2023-11-19T05:58:15;98611.81;;;7.93;69.08
83691;BME280;73671;43.220;0.064;2023-11-19T06:00:40;98622.66;;;7.93;68.25
83691;BME280;73671;43.220;0.064;2023-11-19T06:03:07;98618.78;;;7.94;68.58
83691;BME280;73671;43.220;0.064;2023-11-19T06:05:32;98618.41;;;7.92;67.97
83691;BME280;73671;43.220;0.064;2023-11-19T06:07:58;98623.06;;;7.88;67.86
83691;BME280;73671;43.220;0.064;2023-11-19T06:10:23;98625.78;;;7.88;67.60
83691;BME280;73671;43.220;0.064;2023-11-19T06:12:59;98626.97;;;7.86;68.47
83691;BME280;73671;43.220;0.064;2023-11-19T06:15:28;98626.19;;;7.86;67.43
83691;BME280;73671;43.220;0.064;2023-11-19T06:17:54;98628.91;;;7.86;67.96
83691;BME280;73671;43.220;0.064;2023-11-19T06:20:25;98623.50;;;7.82;67.82
83691;BME280;73671;43.220;0.064;2023-11-19T06:22:53;98632.94;;;7.67;68.51
83691;BME280;73671;43.220;0.064;2023-11-19T06:25:19;98630.59;;;7.69;68.61
83691;BME280;73671;43.220;0.064;2023-11-19T06:27:44;98633.28;;;7.73;67.92
83691;BME280;73671;43.220;0.064;2023-11-19T06:30:10;98632.50;;;7.72;68.20
83691;BME280;73671;43.220;0.064;2023-11-19T06:32:37;98630.72;;;7.55;69.22
83691;BME280;73671;43.220;0.064;2023-11-19T06:35:02;98630.19;;;7.15;72.60
83691;BME280;73671;43.220;0.064;2023-11-19T06:37:30;98628.63;;;7.17;71.42
83691;BME280;73671;43.220;0.064;2023-11-19T06:39:55;98633.28;;;7.17;71.28
83691;BME280;73671;43.220;0.064;2023-11-19T06:42:20;98623.94;;;7.25;70.77
83691;BME280;73671;43.220;0.064;2023-11-19T06:44:46;98632.41;;;7.34;70.32
83691;BME280;73671;43.220;0.064;2023-11-19T06:47:11;98634.25;;;7.44;69.19
83691;BME280;73671;43.220;0.064;2023-11-19T06:49:36;98634.34;;;7.30;71.57
83691;BME280;73671;43.220;0.064;2023-11-19T06:52:02;98628.25;;;7.19;72.80
83691;BME280;73671;43.220;0.064;2023-11-19T06:54:28;98635.13;;;7.31;71.45
83691;BME280;73671;43.220;0.064;2023-11-19T06:56:53;98635.44;;;7.43;70.74
83691;BME280;73671;43.220;0.064;2023-11-19T06:59:18;98633.06;;;7.53;70.20
83691;BME280;73671;43.220;0.064;2023-11-19T07:01:44;98635.69;;;6.97;72.49
83691;BME280;73671;43.220;0.064;2023-11-19T07:04:12;98632.13;;;7.14;72.41
83691;BME280;73671;43.220;0.064;2023-11-19T07:06:38;98644.75;;;7.35;71.21
83691;BME280;73671;43.220;0.064;2023-11-19T07:09:06;98642.44;;;7.37;71.29
83691;BME280;73671;43.220;0.064;2023-11-19T07:11:44;98650.31;;;7.14;72.98
83691;BME280;73671;43.220;0.064;2023-11-19T07:14:11;98646.78;;;7.24;73.72
83691;BME280;73671;43.220;0.064;2023-11-19T07:16:36;98653.22;;;7.48;72.25
83691;BME280;73671;43.220;0.064;2023-11-19T07:19:05;98649.50;;;7.24;73.19
83691;BME280;73671;43.220;0.064;2023-11-19T07:21:31;98654.81;;;7.38;72.99
83691;BME280;73671;43.220;0.064;2023-11-19T07:23:59;98656.25;;;7.54;72.77
83691;BME280;73671;43.220;0.064;2023-11-19T07:26:24;98654.09;;;7.27;73.74
83691;BME280;73671;43.220;0.064;2023-11-19T07:28:50;98657.25;;;7.22;73.93
83691;BME280;73671;43.220;0.064;2023-11-19T07:31:16;98645.56;;;7.32;73.39
83691;BME280;73671;43.220;0.064;2023-11-19T07:33:41;98649.34;;;7.46;73.09
83691;BME280;73671;43.220;0.064;2023-11-19T07:36:10;98651.16;;;7.63;72.22
83691;BME280;73671;43.220;0.064;2023-11-19T07:38:36;98660.75;;;7.78;71.96
83691;BME280;73671;43.220;0.064;2023-11-19T07:41:02;98652.91;;;7.88;71.75
83691;BME280;73671;43.220;0.064;2023-11-19T07:43:27;98663.75;;;7.88;72.35
83691;BME280;73671;43.220;0.064;2023-11-19T07:45:53;98658.31;;;7.88;72.16
83691;BME280;73671;43.220;0.064;2023-11-19T07:48:18;98664.53;;;7.84;73.02
83691;BME280;73671;43.220;0.064;2023-11-19T07:50:48;98661.72;;;7.99;72.42
83691;BME280;73671;43.220;0.064;2023-11-19T07:53:16;98665.13;;;8.10;71.83
83691;BME280;73671;43.220;0.064;2023-11-19T07:55:41;98669.66;;;8.20;71.90
83691;BME280;73671;43.220;0.064;2023-11-19T07:58:06;98671.16;;;8.28;70.84
83691;BME280;73671;43.220;0.064;2023-11-19T08:00:32;98678.09;;;8.33;71.34
83691;BME280;73671;43.220;0.064;2023-11-19T08:02:57;98681.94;;;8.36;71.16
83691;BME280;73671;43.220;0.064;2023-11-19T08:05:22;98679.13;;;8.46;71.09
83691;BME280;73671;43.220;0.064;2023-11-19T08:07:50;98683.31;;;8.55;71.06
83691;BME280;73671;43.220;0.064;2023-11-19T08:10:16;98687.16;;;8.57;71.67
83691;BME280;73671;43.220;0.064;2023-11-19T08:12:41;98691.00;;;8.60;71.78
83691;BME280;73671;43.220;0.064;2023-11-19T08:15:07;98696.31;;;8.70;71.48
83691;BME280;73671;43.220;0.064;2023-11-19T08:17:33;98694.63;;;8.84;70.07
83691;BME280;73671;43.220;0.064;2023-11-19T08:19:58;98691.81;;;8.91;70.75
83691;BME280;73671;43.220;0.064;2023-11-19T08:22:25;98699.06;;;9.01;69.85
83691;BME280;73671;43.220;0.064;2023-11-19T08:24:51;98701.31;;;9.10;69.73
83691;BME280;73671;43.220;0.064;2023-11-19T08:27:16;98702.34;;;9.20;69.66
83691;BME280;73671;43.220;0.064;2023-11-19T08:29:42;98705.69;;;9.31;70.07
83691;BME280;73671;43.220;0.064;2023-11-19T08:32:07;98702.41;;;9.43;69.94
83691;BME280;73671;43.220;0.064;2023-11-19T08:34:32;98699.50;;;9.58;69.17
83691;BME280;73671;43.220;0.064;2023-11-19T08:36:59;98705.09;;;9.74;69.36
83691;BME280;73671;43.220;0.064;2023-11-19T08:39:24;98697.56;;;10.09;69.29
83691;BME280;73671;43.220;0.064;2023-11-19T08:41:50;98703.84;;;10.93;68.23
83691;BME280;73671;43.220;0.064;2023-11-19T08:44:15;98703.94;;;11.98;66.11
83691;BME280;73671;43.220;0.064;2023-11-19T08:46:50;98704.69;;;12.90;62.51
83691;BME280;73671;43.220;0.064;2023-11-19T08:49:16;98719.69;;;13.53;61.48
83691;BME280;73671;43.220;0.064;2023-11-19T08:51:43;98714.97;;;13.92;59.48
83691;BME280;73671;43.220;0.064;2023-11-19T08:54:08;98707.63;;;14.49;58.20
83691;BME280;73671;43.220;0.064;2023-11-19T08:56:33;98715.34;;;14.98;57.25
83691;BME280;73671;43.220;0.064;2023-11-19T08:59:00;98716.06;;;15.74;56.68
83691;BME280;73671;43.220;0.064;2023-11-19T09:01:26;98722.94;;;16.38;55.73
83691;BME280;73671;43.220;0.064;2023-11-19T09:03:51;98714.41;;;16.91;54.31
83691;BME280;73671;43.220;0.064;2023-11-19T09:06:17;98715.69;;;17.42;53.41
83691;BME280;73671;43.220;0.064;2023-11-19T09:08:42;98716.59;;;17.90;52.47
83691;BME280;73671;43.220;0.064;2023-11-19T09:11:08;98721.53;;;18.34;51.24
83691;BME280;73671;43.220;0.064;2023-11-19T09:13:35;98726.75;;;18.71;50.39
83691;BME280;73671;43.220;0.064;2023-11-19T09:16:00;98719.94;;;18.81;49.24
83691;BME280;73671;43.220;0.064;2023-11-19T09:18:29;98721.09;;;18.51;48.96
83691;BME280;73671;43.220;0.064;2023-11-19T09:20:54;98725.97;;;18.08;49.78
83691;BME280;73671;43.220;0.064;2023-11-19T09:23:19;98734.38;;;17.71;50.76
83691;BME280;73671;43.220;0.064;2023-11-19T09:25:45;98731.44;;;17.32;51.21
83691;BME280;73671;43.220;0.064;2023-11-19T09:28:10;98731.22;;;16.93;52.55
83691;BME280;73671;43.220;0.064;2023-11-19T09:30:36;98729.66;;;16.55;52.97
83691;BME280;73671;43.220;0.064;2023-11-19T09:33:01;98730.22;;;16.22;53.39
83691;BME280;73671;43.220;0.064;2023-11-19T09:35:27;98722.53;;;15.99;53.57
83691;BME280;73671;43.220;0.064;2023-11-19T09:37:52;98719.59;;;15.84;54.33
83691;BME280;73671;43.220;0.064;2023-11-19T09:40:18;98715.09;;;15.68;54.28
83691;BME280;73671;43.220;0.064;2023-11-19T09:42:44;98716.38;;;15.76;54.49
83691;BME280;73671;43.220;0.064;2023-11-19T09:45:16;98724.81;;;15.60;54.93
83691;BME280;73671;43.220;0.064;2023-11-19T09:47:44;98722.63;;;15.45;55.71
83691;BME280;73671;43.220;0.064;2023-11-19T09:50:19;98727.41;;;15.32;55.73
83691;BME280;73671;43.220;0.064;2023-11-19T09:52:46;98725.91;;;15.31;55.70
83691;BME280;73671;43.220;0.064;2023-11-19T09:55:12;98726.00;;;15.50;56.05
83691;BME280;73671;43.220;0.064;2023-11-19T09:57:41;98730.03;;;15.67;56.05
83691;BME280;73671;43.220;0.064;2023-11-19T10:00:10;98733.69;;;15.64;56.22
83691;BME280;73671;43.220;0.064;2023-11-19T10:02:38;98732.16;;;15.63;56.32
83691;BME280;73671;43.220;0.064;2023-11-19T10:05:06;98734.25;;;15.59;56.25
83691;BME280;73671;43.220;0.064;2023-11-19T10:07:33;98724.94;;;15.56;56.82
83691;BME280;73671;43.220;0.064;2023-11-19T10:10:02;98729.09;;;15.61;56.84
83691;BME280;73671;43.220;0.064;2023-11-19T10:12:32;98737.25;;;16.14;55.67
83691;BME280;73671;43.220;0.064;2023-11-19T10:14:58;98736.38;;;17.19;54.18
83691;BME280;73671;43.220;0.064;2023-11-19T10:17:36;98733.25;;;18.20;51.70
83691;BME280;73671;43.220;0.064;2023-11-19T10:20:02;98738.66;;;19.16;49.70
83691;BME280;73671;43.220;0.064;2023-11-19T10:22:28;98739.38;;;19.91;48.01
83691;BME280;73671;43.220;0.064;2023-11-19T10:24:53;98735.72;;;20.56;46.13
83691;BME280;73671;43.220;0.064;2023-11-19T10:27:19;98737.88;;;20.92;44.56
83691;BME280;73671;43.220;0.064;2023-11-19T10:29:45;98734.66;;;21.52;44.72
83691;BME280;73671;43.220;0.064;2023-11-19T10:32:12;98734.66;;;21.52;44.72
83691;BME280;73671;43.220;0.064;2023-11-19T10:34:38;98734.66;;;21.52;44.72
83691;BME280;73671;43.220;0.064;2023-11-19T10:37:05;98734.66;;;21.52;44.72
83691;BME280;73671;43.220;0.064;2023-11-19T10:39:53;98731.47;;;23.33;40.14
83691;BME280;73671;43.220;0.064;2023-11-19T10:42:22;98730.44;;;23.81;39.58
83691;BME280;73671;43.220;0.064;2023-11-19T10:44:47;98730.44;;;23.81;39.58
83691;BME280;73671;43.220;0.064;2023-11-19T10:47:18;98730.44;;;23.81;39.58
83691;BME280;73671;43.220;0.064;2023-11-19T10:49:45;98730.44;;;23.81;39.58
83691;BME280;73671;43.220;0.064;2023-11-19T10:52:16;98726.81;;;24.84;36.74
83691;BME280;73671;43.220;0.064;2023-11-19T10:54:44;98735.09;;;25.01;37.08
83691;BME280;73671;43.220;0.064;2023-11-19T10:57:10;98735.09;;;25.01;37.08
83691;BME280;73671;43.220;0.064;2023-11-19T10:59:38;98735.09;;;25.01;37.08
83691;BME280;73671;43.220;0.064;2023-11-19T11:02:07;98713.25;;;25.47;36.10
83691;BME280;73671;43.220;0.064;2023-11-19T11:04:39;98721.59;;;25.77;35.57
83691;BME280;73671;43.220;0.064;2023-11-19T11:07:05;98721.59;;;25.77;35.57
83691;BME280;73671;43.220;0.064;2023-11-19T11:09:32;71229.28;;;-146.39;100.00
83691;BME280;73671;43.220;0.064;2023-11-19T11:11:59;71229.28;;;-146.39;100.00
83691;BME280;73671;43.220;0.064;2023-11-19T11:14:25;71229.28;;;-146.39;100.00
83691;BME280;73671;43.220;0.064;2023-11-19T11:16:53;71229.28;;;-146.39;100.00
83691;BME280;73671;43.220;0.064;2023-11-19T11:19:19;71229.28;;;-146.39;100.00
83691;BME280;73671;43.220;0.064;2023-11-19T11:21:48;71229.28;;;-146.39;100.00
83691;BME280;73671;43.220;0.064;2023-11-19T11:30:29;71229.28;;;-146.39;100.00
83691;BME280;73671;43.220;0.064;2023-11-19T11:33:11;71229.28;;;-146.39;100.00
83691;BME280;73671;43.220;0.064;2023-11-19T11:35:51;71229.28;;;-146.39;100.00
83691;BME280;73671;43.220;0.064;2023-11-19T11:38:22;71229.28;;;-146.39;100.00
83691;BME280;73671;43.220;0.064;2023-11-19T11:43:47;71229.28;;;-146.39;100.00
83691;BME280;73671;43.220;0.064;2023-11-19T11:49:04;71229.28;;;-146.39;100.00
83691;BME280;73671;43.220;0.064;2023-11-19T11:54:30;71229.28;;;-146.39;100.00
83691;BME280;73671;43.220;0.064;2023-11-19T11:57:13;71229.28;;;-146.39;100.00
83691;BME280;73671;43.220;0.064;2023-11-19T12:02:08;71229.28;;;-146.39;100.00
83691;BME280;73671;43.220;0.064;2023-11-19T12:04:37;71229.28;;;-146.39;100.00
83691;BME280;73671;43.220;0.064;2023-11-19T12:07:06;71229.28;;;-146.39;100.00
83691;BME280;73671;43.220;0.064;2023-11-19T12:09:32;71229.28;;;-146.39;100.00
83691;BME280;73671;43.220;0.064;2023-11-19T12:19:59;71229.28;;;-146.39;100.00
83691;BME280;73671;43.220;0.064;2023-11-19T12:22:25;71229.28;;;-146.39;100.00
83691;BME280;73671;43.220;0.064;2023-11-19T12:24:54;71229.28;;;-146.39;100.00
83691;BME280;73671;43.220;0.064;2023-11-19T12:27:20;71229.28;;;-146.39;100.00
83691;BME280;73671;43.220;0.064;2023-11-19T12:29:49;71229.28;;;-146.39;100.00
83691;BME280;73671;43.220;0.064;2023-11-19T12:32:14;71229.28;;;-146.39;100.00
83691;BME280;73671;43.220;0.064;2023-11-19T12:34:40;71229.28;;;-146.39;100.00
83691;BME280;73671;43.220;0.064;2023-11-19T12:37:06;71229.28;;;-146.39;100.00
83691;BME280;73671;43.220;0.064;2023-11-19T12:39:31;71229.28;;;-146.39;100.00
83691;BME280;73671;43.220;0.064;2023-11-19T12:41:57;71229.28;;;-146.39;100.00
83691;BME280;73671;43.220;0.064;2023-11-19T12:44:25;71229.28;;;-146.39;100.00
83691;BME280;73671;43.220;0.064;2023-11-19T12:47:04;71229.28;;;-146.39;100.00
83691;BME280;73671;43.220;0.064;2023-11-19T12:49:31;71229.28;;;-146.39;100.00
83691;BME280;73671;43.220;0.064;2023-11-19T12:51:57;71229.28;;;-146.39;100.00
83691;BME280;73671;43.220;0.064;2023-11-19T12:54:35;71229.28;;;-146.39;100.00
83691;BME280;73671;43.220;0.064;2023-11-19T12:57:02;71229.28;;;-146.39;100.00
83691;BME280;73671;43.220;0.064;2023-11-19T12:59:28;71229.28;;;-146.39;100.00
83691;BME280;73671;43.220;0.064;2023-11-19T13:01:57;71229.28;;;-146.39;100.00
83691;BME280;73671;43.220;0.064;2023-11-19T13:04:23;71229.28;;;-146.39;100.00
83691;BME280;73671;43.220;0.064;2023-11-19T13:06:51;71229.28;;;-146.39;100.00
83691;BME280;73671;43.220;0.064;2023-11-19T13:09:24;71229.28;;;-146.39;100.00
83691;BME280;73671;43.220;0.064;2023-11-19T13:11:53;71229.28;;;-146.39;100.00
83691;BME280;73671;43.220;0.064;2023-11-19T13:14:20;71229.28;;;-146.39;100.00
83691;BME280;73671;43.220;0.064;2023-11-19T13:16:45;71229.28;;;-146.39;100.00
83691;BME280;73671;43.220;0.064;2023-11-19T13:19:12;71229.28;;;-146.39;100.00
83691;BME280;73671;43.220;0.064;2023-11-19T13:21:38;71229.28;;;-146.39;100.00
83691;BME280;73671;43.220;0.064;2023-11-19T13:24:05;71229.28;;;-146.39;100.00
83691;BME280;73671;43.220;0.064;2023-11-19T13:26:31;71229.28;;;-146.39;100.00